sensor_id;sensor_type;location;lat;lon;timestamp;pressure;altitude;pressure_sealevel;temperature;humidity
46129;BME280;31860;45.186;5.790;2023-01-27T00:01:51;99073.19;;;6.78;63.11
46129;BME280;31860;45.186;5.790;2023-01-27T00:04:16;99085.34;;;6.79;62.72
46129;BME280;31860;45.186;5.790;2023-01-27T00:06:42;99081.88;;;6.78;63.07
46129;BME280;31860;45.186;5.790;2023-01-27T00:09:07;99087.94;;;6.80;62.46
46129;BME280;31860;45.186;5.790;2023-01-27T00:11:33;99088.78;;;6.78;62.65
46129;BME280;31860;45.186;5.790;2023-01-27T00:14:17;99080.97;;;6.78;62.54
46129;BME280;31860;45.186;5.790;2023-01-27T00:16:42;99084.47;;;6.78;62.31
46129;BME280;31860;45.186;5.790;2023-01-27T00:19:07;99083.59;;;6.79;61.82
46129;BME280;31860;45.186;5.790;2023-01-27T00:21:33;99085.34;;;6.79;61.86
46129;BME280;31860;45.186;5.790;2023-01-27T00:24:16;99086.19;;;6.78;61.83
46129;BME280;31860;45.186;5.790;2023-01-27T00:27:01;99086.16;;;6.76;62.05
46129;BME280;31860;45.186;5.790;2023-01-27T00:29:26;99085.28;;;6.77;61.95
46129;BME280;31860;45.186;5.790;2023-01-27T00:31:52;99089.66;;;6.78;61.83
46129;BME280;31860;45.186;5.790;2023-01-27T00:34:36;99093.97;;;6.78;61.97
46129;BME280;31860;45.186;5.790;2023-01-27T00:37:03;99087.06;;;6.78;62.37
46129;BME280;31860;45.186;5.790;2023-01-27T00:39:28;99092.25;;;6.78;62.61
46129;BME280;31860;45.186;5.790;2023-01-27T00:41:54;99084.44;;;6.77;62.21
46129;BME280;31860;45.186;5.790;2023-01-27T00:44:19;99097.44;;;6.77;62.18
46129;BME280;31860;45.186;5.790;2023-01-27T00:46:44;99085.28;;;6.77;62.44
46129;BME280;31860;45.186;5.790;2023-01-27T00:49:10;99090.53;;;6.79;62.51
46129;BME280;31860;45.186;5.790;2023-01-27T00:51:37;99089.63;;;6.77;62.86
46129;BME280;31860;45.186;5.790;2023-01-27T00:54:03;99090.47;;;6.77;63.13
46129;BME280;31860;45.186;5.790;2023-01-27T00:56:29;99087.94;;;6.79;63.49
46129;BME280;31860;45.186;5.790;2023-01-27T00:58:54;99080.97;;;6.78;63.15
46129;BME280;31860;45.186;5.790;2023-01-27T01:01:20;99086.19;;;6.78;63.11
46129;BME280;31860;45.186;5.790;2023-01-27T01:03:46;99081.81;;;6.75;63.55
46129;BME280;31860;45.186;5.790;2023-01-27T01:06:14;99080.97;;;6.75;64.02
46129;BME280;31860;45.186;5.790;2023-01-27T01:08:40;99074.91;;;6.77;64.33
46129;BME280;31860;45.186;5.790;2023-01-27T01:11:07;99075.78;;;6.76;64.67
46129;BME280;31860;45.186;5.790;2023-01-27T01:13:33;99071.44;;;6.75;64.75
46129;BME280;31860;45.186;5.790;2023-01-27T01:16:10;99072.28;;;6.74;65.07
46129;BME280;31860;45.186;5.790;2023-01-27T01:18:36;99070.56;;;6.75;64.96
46129;BME280;31860;45.186;5.790;2023-01-27T01:21:03;99075.78;;;6.75;64.75
46129;BME280;31860;45.186;5.790;2023-01-27T01:23:31;99077.50;;;6.76;64.89
46129;BME280;31860;45.186;5.790;2023-01-27T01:25:57;99064.53;;;6.76;65.01
46129;BME280;31860;45.186;5.790;2023-01-27T01:28:23;99068.00;;;6.78;65.19
46129;BME280;31860;45.186;5.790;2023-01-27T01:30:49;99073.22;;;6.79;64.90
46129;BME280;31860;45.186;5.790;2023-01-27T01:33:14;99071.47;;;6.78;64.88
46129;BME280;31860;45.186;5.790;2023-01-27T01:35:40;99071.47;;;6.78;65.70
46129;BME280;31860;45.186;5.790;2023-01-27T01:38:05;99065.44;;;6.79;65.33
46129;BME280;31860;45.186;5.790;2023-01-27T01:40:31;99067.19;;;6.79;64.93
46129;BME280;31860;45.186;5.790;2023-01-27T01:42:59;99062.81;;;6.78;65.04
46129;BME280;31860;45.186;5.790;2023-01-27T01:51:00;99067.97;;;6.75;65.72
46129;BME280;31860;45.186;5.790;2023-01-27T01:53:36;99067.09;;;6.74;65.81
46129;BME280;31860;45.186;5.790;2023-01-27T01:56:07;99064.50;;;6.72;65.32
46129;BME280;31860;45.186;5.790;2023-01-27T01:58:35;99061.91;;;6.72;65.75
46129;BME280;31860;45.186;5.790;2023-01-27T02:01:03;99055.00;;;6.73;65.71
46129;BME280;31860;45.186;5.790;2023-01-27T02:03:31;99052.34;;;6.71;65.64
46129;BME280;31860;45.186;5.790;2023-01-27T02:05:57;99053.22;;;6.72;65.72
46129;BME280;31860;45.186;5.790;2023-01-27T02:08:33;99060.19;;;6.73;65.59
46129;BME280;31860;45.186;5.790;2023-01-27T02:11:00;99048.03;;;6.72;65.82
46129;BME280;31860;45.186;5.790;2023-01-27T02:13:25;99047.16;;;6.71;65.79
46129;BME280;31860;45.186;5.790;2023-01-27T02:15:53;99053.22;;;6.70;65.59
46129;BME280;31860;45.186;5.790;2023-01-27T02:18:19;99043.72;;;6.71;65.47
46129;BME280;31860;45.186;5.790;2023-01-27T02:20:47;99046.28;;;6.69;65.74
46129;BME280;31860;45.186;5.790;2023-01-27T02:28:59;99041.94;;;6.68;65.42
46129;BME280;31860;45.186;5.790;2023-01-27T02:31:24;99041.06;;;6.68;65.34
46129;BME280;31860;45.186;5.790;2023-01-27T02:33:52;99043.66;;;6.68;65.52
46129;BME280;31860;45.186;5.790;2023-01-27T02:36:21;99039.34;;;6.68;65.52
46129;BME280;31860;45.186;5.790;2023-01-27T02:38:48;99039.38;;;6.70;65.31
46129;BME280;31860;45.186;5.790;2023-01-27T02:41:16;99036.75;;;6.68;65.55
46129;BME280;31860;45.186;5.790;2023-01-27T02:43:44;99037.59;;;6.67;65.37
46129;BME280;31860;45.186;5.790;2023-01-27T02:46:09;99035.88;;;6.66;65.56
46129;BME280;31860;45.186;5.790;2023-01-27T02:48:35;99028.97;;;6.67;65.36
46129;BME280;31860;45.186;5.790;2023-01-27T02:51:00;99031.56;;;6.67;65.67
46129;BME280;31860;45.186;5.790;2023-01-27T02:53:25;99022.88;;;6.65;65.83
46129;BME280;31860;45.186;5.790;2023-01-27T02:55:51;99024.59;;;6.63;66.15
46129;BME280;31860;45.186;5.790;2023-01-27T02:58:16;99016.78;;;6.63;66.21
46129;BME280;31860;45.186;5.790;2023-01-27T03:00:42;99013.31;;;6.61;65.91
46129;BME280;31860;45.186;5.790;2023-01-27T03:03:08;99017.59;;;6.57;66.41
46129;BME280;31860;45.186;5.790;2023-01-27T03:05:34;99013.25;;;6.56;66.59
46129;BME280;31860;45.186;5.790;2023-01-27T03:07:59;99009.81;;;6.56;66.89
46129;BME280;31860;45.186;5.790;2023-01-27T03:10:24;99009.81;;;6.56;66.60
46129;BME280;31860;45.186;5.790;2023-01-27T03:12:50;99002.91;;;6.58;66.89
46129;BME280;31860;45.186;5.790;2023-01-27T03:15:15;99002.91;;;6.58;66.65
46129;BME280;31860;45.186;5.790;2023-01-27T03:18:04;99003.72;;;6.54;66.83
46129;BME280;31860;45.186;5.790;2023-01-27T03:20:46;99000.25;;;6.55;66.63
46129;BME280;31860;45.186;5.790;2023-01-27T03:23:13;98995.94;;;6.54;66.34
46129;BME280;31860;45.186;5.790;2023-01-27T03:25:43;98997.66;;;6.53;66.56
46129;BME280;31860;45.186;5.790;2023-01-27T03:28:10;99002.84;;;6.53;66.29
46129;BME280;31860;45.186;5.790;2023-01-27T03:30:36;99001.97;;;6.53;66.11
46129;BME280;31860;45.186;5.790;2023-01-27T03:33:02;99005.44;;;6.53;66.44
46129;BME280;31860;45.186;5.790;2023-01-27T03:35:29;99003.66;;;6.51;66.65
46129;BME280;31860;45.186;5.790;2023-01-27T03:38:13;99001.94;;;6.51;66.69
46129;BME280;31860;45.186;5.790;2023-01-27T03:40:58;99011.44;;;6.51;66.43
46129;BME280;31860;45.186;5.790;2023-01-27T03:43:42;99009.69;;;6.48;66.79
46129;BME280;31860;45.186;5.790;2023-01-27T03:46:26;99002.75;;;6.47;66.96
46129;BME280;31860;45.186;5.790;2023-01-27T03:48:53;99001.94;;;6.50;66.83
46129;BME280;31860;45.186;5.790;2023-01-27T03:51:22;98997.63;;;6.50;66.66
46129;BME280;31860;45.186;5.790;2023-01-27T03:53:48;98997.56;;;6.49;66.40
46129;BME280;31860;45.186;5.790;2023-01-27T03:56:15;98993.28;;;6.49;66.01
46129;BME280;31860;45.186;5.790;2023-01-27T03:58:41;98994.16;;;6.51;66.17
46129;BME280;31860;45.186;5.790;2023-01-27T04:01:13;98986.38;;;6.51;66.37
46129;BME280;31860;45.186;5.790;2023-01-27T04:03:39;98984.66;;;6.50;66.08
46129;BME280;31860;45.186;5.790;2023-01-27T04:06:25;98987.25;;;6.52;66.35
46129;BME280;31860;45.186;5.790;2023-01-27T04:09:16;98984.66;;;6.52;66.53
46129;BME280;31860;45.186;5.790;2023-01-27T04:11:42;98982.88;;;6.48;66.55
46129;BME280;31860;45.186;5.790;2023-01-27T04:16:50;98988.91;;;6.47;66.69
46129;BME280;31860;45.186;5.790;2023-01-27T04:19:15;98985.47;;;6.46;67.21
46129;BME280;31860;45.186;5.790;2023-01-27T04:21:41;98986.31;;;6.47;66.93
46129;BME280;31860;45.186;5.790;2023-01-27T04:24:06;98994.06;;;6.45;67.20
46129;BME280;31860;45.186;5.790;2023-01-27T04:26:33;98989.75;;;6.44;67.39
46129;BME280;31860;45.186;5.790;2023-01-27T04:29:00;98984.59;;;6.46;67.36
46129;BME280;31860;45.186;5.790;2023-01-27T04:31:26;98985.47;;;6.48;67.34
46129;BME280;31860;45.186;5.790;2023-01-27T04:33:51;98990.66;;;6.48;67.13
46129;BME280;31860;45.186;5.790;2023-01-27T04:36:17;98982.00;;;6.46;67.15
46129;BME280;31860;45.186;5.790;2023-01-27T04:38:42;98986.28;;;6.45;67.86
46129;BME280;31860;45.186;5.790;2023-01-27T04:41:08;98989.78;;;6.46;67.50
46129;BME280;31860;45.186;5.790;2023-01-27T04:43:34;98987.19;;;6.46;67.58
46129;BME280;31860;45.186;5.790;2023-01-27T04:45:59;98983.69;;;6.45;67.91
46129;BME280;31860;45.186;5.790;2023-01-27T04:48:25;98982.00;;;6.46;67.53
46129;BME280;31860;45.186;5.790;2023-01-27T04:50:50;98980.28;;;6.48;67.76
46129;BME280;31860;45.186;5.790;2023-01-27T04:53:15;98983.72;;;6.47;68.06
46129;BME280;31860;45.186;5.790;2023-01-27T04:55:44;98989.78;;;6.46;68.34
46129;BME280;31860;45.186;5.790;2023-01-27T04:58:12;98990.59;;;6.45;68.86
46129;BME280;31860;45.186;5.790;2023-01-27T05:00:38;98988.88;;;6.44;68.98
46129;BME280;31860;45.186;5.790;2023-01-27T05:03:04;98989.75;;;6.44;69.14
46129;BME280;31860;45.186;5.790;2023-01-27T05:05:30;98988.91;;;6.45;69.29
46129;BME280;31860;45.186;5.790;2023-01-27T05:08:01;98993.19;;;6.43;69.31
46129;BME280;31860;45.186;5.790;2023-01-27T05:10:27;98988.84;;;6.41;69.45
46129;BME280;31860;45.186;5.790;2023-01-27T05:12:52;98989.69;;;6.41;69.18
46129;BME280;31860;45.186;5.790;2023-01-27T05:15:18;98984.50;;;6.40;69.00
46129;BME280;31860;45.186;5.790;2023-01-27T05:17:43;98982.78;;;6.39;68.77
46129;BME280;31860;45.186;5.790;2023-01-27T05:20:09;98981.88;;;6.37;68.81
46129;BME280;31860;45.186;5.790;2023-01-27T05:22:34;98985.31;;;6.36;68.56
46129;BME280;31860;45.186;5.790;2023-01-27T05:25:00;98992.25;;;6.35;68.50
46129;BME280;31860;45.186;5.790;2023-01-27T05:27:25;98991.34;;;6.35;68.88
46129;BME280;31860;45.186;5.790;2023-01-27T05:29:50;98994.78;;;6.32;68.85
46129;BME280;31860;45.186;5.790;2023-01-27T05:32:16;98985.25;;;6.31;68.36
46129;BME280;31860;45.186;5.790;2023-01-27T05:34:42;98988.69;;;6.30;68.14
46129;BME280;31860;45.186;5.790;2023-01-27T05:37:07;98991.25;;;6.27;68.34
46129;BME280;31860;45.186;5.790;2023-01-27T05:39:33;98985.19;;;6.28;68.00
46129;BME280;31860;45.186;5.790;2023-01-27T05:41:58;98999.06;;;6.30;68.02
46129;BME280;31860;45.186;5.790;2023-01-27T05:44:24;98999.06;;;6.29;68.04
46129;BME280;31860;45.186;5.790;2023-01-27T05:46:49;98997.31;;;6.28;68.07
46129;BME280;31860;45.186;5.790;2023-01-27T05:49:14;98998.16;;;6.28;68.07
46129;BME280;31860;45.186;5.790;2023-01-27T05:51:40;99003.34;;;6.27;67.78
46129;BME280;31860;45.186;5.790;2023-01-27T05:54:06;99001.66;;;6.29;67.44
46129;BME280;31860;45.186;5.790;2023-01-27T05:56:31;99007.69;;;6.28;67.19
46129;BME280;31860;45.186;5.790;2023-01-27T05:58:58;99007.66;;;6.26;67.31
46129;BME280;31860;45.186;5.790;2023-01-27T06:01:25;99000.75;;;6.28;66.97
46129;BME280;31860;45.186;5.790;2023-01-27T06:03:51;99006.81;;;6.27;67.54
46129;BME280;31860;45.186;5.790;2023-01-27T06:06:18;99003.38;;;6.30;67.03
46129;BME280;31860;45.186;5.790;2023-01-27T06:08:45;99000.81;;;6.31;67.23
46129;BME280;31860;45.186;5.790;2023-01-27T06:11:11;99006.91;;;6.33;66.94
46129;BME280;31860;45.186;5.790;2023-01-27T06:13:37;99009.50;;;6.33;66.99
46129;BME280;31860;45.186;5.790;2023-01-27T06:16:05;99009.50;;;6.33;67.01
46129;BME280;31860;45.186;5.790;2023-01-27T06:18:31;99015.53;;;6.34;67.54
46129;BME280;31860;45.186;5.790;2023-01-27T06:20:58;99003.41;;;6.31;67.15
46129;BME280;31860;45.186;5.790;2023-01-27T06:23:24;99011.22;;;6.33;66.99
46129;BME280;31860;45.186;5.790;2023-01-27T06:25:49;99004.31;;;6.35;66.47
46129;BME280;31860;45.186;5.790;2023-01-27T06:28:16;99003.44;;;6.34;66.66
46129;BME280;31860;45.186;5.790;2023-01-27T06:30:42;99009.50;;;6.35;66.55
46129;BME280;31860;45.186;5.790;2023-01-27T06:33:08;99006.03;;;6.34;66.55
46129;BME280;31860;45.186;5.790;2023-01-27T06:35:35;99002.56;;;6.32;66.34
46129;BME280;31860;45.186;5.790;2023-01-27T06:38:03;99005.16;;;6.32;66.71
46129;BME280;31860;45.186;5.790;2023-01-27T06:40:31;99006.00;;;6.31;66.70
46129;BME280;31860;45.186;5.790;2023-01-27T06:42:57;99000.81;;;6.31;66.49
46129;BME280;31860;45.186;5.790;2023-01-27T06:45:23;99000.81;;;6.31;66.02
46129;BME280;31860;45.186;5.790;2023-01-27T06:47:59;98999.94;;;6.31;66.27
46129;BME280;31860;45.186;5.790;2023-01-27T06:50:27;99007.72;;;6.31;66.43
46129;BME280;31860;45.186;5.790;2023-01-27T06:52:58;99007.72;;;6.31;65.56
46129;BME280;31860;45.186;5.790;2023-01-27T06:55:24;99011.16;;;6.30;65.70
46129;BME280;31860;45.186;5.790;2023-01-27T06:57:49;99014.59;;;6.29;65.71
46129;BME280;31860;45.186;5.790;2023-01-27T07:00:15;99012.91;;;6.29;65.98
46129;BME280;31860;45.186;5.790;2023-01-27T07:02:42;99012.88;;;6.28;65.31
46129;BME280;31860;45.186;5.790;2023-01-27T07:05:08;99014.63;;;6.32;65.12
46129;BME280;31860;45.186;5.790;2023-01-27T07:07:33;99018.13;;;6.32;64.95
46129;BME280;31860;45.186;5.790;2023-01-27T07:09:58;99017.28;;;6.35;64.76
46129;BME280;31860;45.186;5.790;2023-01-27T07:12:24;99019.03;;;6.36;64.59
46129;BME280;31860;45.186;5.790;2023-01-27T07:14:49;99023.31;;;6.34;64.94
46129;BME280;31860;45.186;5.790;2023-01-27T07:17:16;99019.00;;;6.33;65.31
46129;BME280;31860;45.186;5.790;2023-01-27T07:19:41;99031.97;;;6.34;65.10
46129;BME280;31860;45.186;5.790;2023-01-27T07:22:07;99025.09;;;6.38;64.94
46129;BME280;31860;45.186;5.790;2023-01-27T07:24:32;99031.16;;;6.38;64.81
46129;BME280;31860;45.186;5.790;2023-01-27T07:26:57;99029.41;;;6.36;64.80
46129;BME280;31860;45.186;5.790;2023-01-27T07:29:23;99036.31;;;6.35;64.44
46129;BME280;31860;45.186;5.790;2023-01-27T07:31:48;99033.69;;;6.34;64.70
46129;BME280;31860;45.186;5.790;2023-01-27T07:34:14;99040.63;;;6.35;64.62
46129;BME280;31860;45.186;5.790;2023-01-27T07:36:39;99032.78;;;6.32;64.52
46129;BME280;31860;45.186;5.790;2023-01-27T07:39:04;99038.03;;;6.35;64.59
46129;BME280;31860;45.186;5.790;2023-01-27T07:41:30;99044.94;;;6.33;64.33
46129;BME280;31860;45.186;5.790;2023-01-27T07:43:55;99031.97;;;6.33;63.75
46129;BME280;31860;45.186;5.790;2023-01-27T07:46:21;99038.03;;;6.33;63.73
46129;BME280;31860;45.186;5.790;2023-01-27T07:48:46;99042.34;;;6.34;63.21
46129;BME280;31860;45.186;5.790;2023-01-27T07:51:13;99046.66;;;6.34;62.88
46129;BME280;31860;45.186;5.790;2023-01-27T07:53:39;99041.44;;;6.31;63.23
46129;BME280;31860;45.186;5.790;2023-01-27T07:56:05;99050.13;;;6.34;62.34
46129;BME280;31860;45.186;5.790;2023-01-27T07:58:36;99043.16;;;6.32;62.58
46129;BME280;31860;45.186;5.790;2023-01-27T08:01:07;99039.72;;;6.31;62.53
46129;BME280;31860;45.186;5.790;2023-01-27T08:03:33;99045.75;;;6.30;63.06
46129;BME280;31860;45.186;5.790;2023-01-27T08:06:03;99049.22;;;6.32;62.91
46129;BME280;31860;45.186;5.790;2023-01-27T08:08:29;99050.09;;;6.31;63.53
46129;BME280;31860;45.186;5.790;2023-01-27T08:10:58;99053.53;;;6.32;63.18
46129;BME280;31860;45.186;5.790;2023-01-27T08:13:24;99050.09;;;6.31;63.30
46129;BME280;31860;45.186;5.790;2023-01-27T08:15:55;99055.22;;;6.30;63.03
46129;BME280;31860;45.186;5.790;2023-01-27T08:18:21;99047.44;;;6.30;63.33
46129;BME280;31860;45.186;5.790;2023-01-27T08:20:46;99057.88;;;6.33;63.96
46129;BME280;31860;45.186;5.790;2023-01-27T08:23:11;99056.19;;;6.33;63.53
46129;BME280;31860;45.186;5.790;2023-01-27T08:25:37;99057.00;;;6.32;63.25
46129;BME280;31860;45.186;5.790;2023-01-27T08:28:02;99057.88;;;6.33;63.04
46129;BME280;31860;45.186;5.790;2023-01-27T08:30:27;99058.72;;;6.32;62.83
46129;BME280;31860;45.186;5.790;2023-01-27T08:32:53;99057.03;;;6.34;62.78
46129;BME280;31860;45.186;5.790;2023-01-27T08:35:19;99067.44;;;6.35;62.52
46129;BME280;31860;45.186;5.790;2023-01-27T08:37:46;99057.06;;;6.35;62.24
46129;BME280;31860;45.186;5.790;2023-01-27T08:40:12;99058.00;;;6.40;62.43
46129;BME280;31860;45.186;5.790;2023-01-27T08:42:38;99063.16;;;6.39;61.82
46129;BME280;31860;45.186;5.790;2023-01-27T08:45:03;99061.41;;;6.38;61.09
46129;BME280;31860;45.186;5.790;2023-01-27T08:47:29;99064.00;;;6.38;60.91
46129;BME280;31860;45.186;5.790;2023-01-27T08:49:54;99064.06;;;6.41;60.97
46129;BME280;31860;45.186;5.790;2023-01-27T08:52:20;99068.38;;;6.40;60.85
46129;BME280;31860;45.186;5.790;2023-01-27T08:54:47;99065.78;;;6.42;61.42
46129;BME280;31860;45.186;5.790;2023-01-27T08:57:12;99068.41;;;6.43;61.43
46129;BME280;31860;45.186;5.790;2023-01-27T08:59:37;99061.50;;;6.44;61.60
46129;BME280;31860;45.186;5.790;2023-01-27T09:02:03;99064.09;;;6.44;61.89
46129;BME280;31860;45.186;5.790;2023-01-27T09:04:28;99067.56;;;6.43;62.30
46129;BME280;31860;45.186;5.790;2023-01-27T09:06:55;99066.69;;;6.42;62.41
46129;BME280;31860;45.186;5.790;2023-01-27T09:09:20;99063.19;;;6.42;62.46
46129;BME280;31860;45.186;5.790;2023-01-27T09:11:46;99064.97;;;6.43;62.65
46129;BME280;31860;45.186;5.790;2023-01-27T09:14:11;99070.16;;;6.44;62.69
46129;BME280;31860;45.186;5.790;2023-01-27T09:16:37;99070.19;;;6.46;63.04
46129;BME280;31860;45.186;5.790;2023-01-27T09:19:02;99075.34;;;6.44;62.96
46129;BME280;31860;45.186;5.790;2023-01-27T09:21:28;99073.59;;;6.43;62.96
46129;BME280;31860;45.186;5.790;2023-01-27T09:23:54;99070.16;;;6.44;63.15
46129;BME280;31860;45.186;5.790;2023-01-27T09:26:19;99078.78;;;6.45;63.25
46129;BME280;31860;45.186;5.790;2023-01-27T09:28:44;99077.06;;;6.44;63.42
46129;BME280;31860;45.186;5.790;2023-01-27T09:31:10;99073.59;;;6.45;63.05
46129;BME280;31860;45.186;5.790;2023-01-27T09:33:35;99078.78;;;6.43;63.24
46129;BME280;31860;45.186;5.790;2023-01-27T09:36:12;99076.19;;;6.43;63.23
46129;BME280;31860;45.186;5.790;2023-01-27T09:38:47;99076.19;;;6.43;63.02
46129;BME280;31860;45.186;5.790;2023-01-27T10:27:15;99104.69;;;6.42;63.69
46129;BME280;31860;45.186;5.790;2023-01-27T10:29:46;99106.41;;;6.41;63.95
46129;BME280;31860;45.186;5.790;2023-01-27T10:34:57;99102.88;;;6.36;64.21
46129;BME280;31860;45.186;5.790;2023-01-27T10:42:49;99102.84;;;6.33;64.07
46129;BME280;31860;45.186;5.790;2023-01-27T10:48:45;99106.25;;;6.31;64.64
46129;BME280;31860;45.186;5.790;2023-01-27T10:51:33;99103.66;;;6.31;64.94
46129;BME280;31860;45.186;5.790;2023-01-27T10:54:04;99092.44;;;6.32;65.17
46129;BME280;31860;45.186;5.790;2023-01-27T10:56:50;99095.03;;;6.32;64.79
46129;BME280;31860;45.186;5.790;2023-01-27T10:59:36;99089.91;;;6.33;65.29
46129;BME280;31860;45.186;5.790;2023-01-27T11:02:17;99092.50;;;6.35;65.08
46129;BME280;31860;45.186;5.790;2023-01-27T11:04:54;99089.94;;;6.36;64.96
46129;BME280;31860;45.186;5.790;2023-01-27T11:07:22;99095.13;;;6.39;64.84
46129;BME280;31860;45.186;5.790;2023-01-27T11:09:55;99099.50;;;6.40;64.63
46129;BME280;31860;45.186;5.790;2023-01-27T11:12:35;99097.81;;;6.42;64.83
46129;BME280;31860;45.186;5.790;2023-01-27T11:15:16;99089.13;;;6.40;65.02
46129;BME280;31860;45.186;5.790;2023-01-27T11:17:46;99093.50;;;6.43;64.81
46129;BME280;31860;45.186;5.790;2023-01-27T11:20:33;99101.28;;;6.44;64.54
46129;BME280;31860;45.186;5.790;2023-01-27T11:28:09;99098.69;;;6.43;64.54
46129;BME280;31860;45.186;5.790;2023-01-27T11:33:18;99097.81;;;6.42;64.39
46129;BME280;31860;45.186;5.790;2023-01-27T11:35:47;99093.53;;;6.46;63.59
46129;BME280;31860;45.186;5.790;2023-01-27T11:38:18;99099.63;;;6.49;63.25
46129;BME280;31860;45.186;5.790;2023-01-27T11:40:45;99087.56;;;6.51;63.51
46129;BME280;31860;45.186;5.790;2023-01-27T11:43:15;99092.75;;;6.53;62.93
46129;BME280;31860;45.186;5.790;2023-01-27T11:45:42;99092.81;;;6.56;62.97
46129;BME280;31860;45.186;5.790;2023-01-27T11:48:12;99085.88;;;6.55;62.86
46129;BME280;31860;45.186;5.790;2023-01-27T11:50:40;99090.22;;;6.57;62.64
46129;BME280;31860;45.186;5.790;2023-01-27T11:53:13;99082.47;;;6.59;62.92
46129;BME280;31860;45.186;5.790;2023-01-27T11:55:49;99075.56;;;6.59;62.56
46129;BME280;31860;45.186;5.790;2023-01-27T11:58:24;99075.59;;;6.61;61.77
46129;BME280;31860;45.186;5.790;2023-01-27T12:01:13;99078.16;;;6.59;62.20
46129;BME280;31860;45.186;5.790;2023-01-27T12:07:12;99069.53;;;6.62;62.38
46129;BME280;31860;45.186;5.790;2023-01-27T12:09:40;99061.72;;;6.59;62.49
46129;BME280;31860;45.186;5.790;2023-01-27T12:12:21;99060.00;;;6.61;62.47
46129;BME280;31860;45.186;5.790;2023-01-27T12:14:58;99061.75;;;6.62;62.66
46129;BME280;31860;45.186;5.790;2023-01-27T12:19:56;99061.75;;;6.62;62.23
46129;BME280;31860;45.186;5.790;2023-01-27T12:22:27;99051.34;;;6.62;62.08
46129;BME280;31860;45.186;5.790;2023-01-27T12:24:57;99053.13;;;6.63;62.51
46129;BME280;31860;45.186;5.790;2023-01-27T12:27:29;99053.13;;;6.63;62.07
46129;BME280;31860;45.186;5.790;2023-01-27T12:29:58;99046.16;;;6.62;61.83
46129;BME280;31860;45.186;5.790;2023-01-27T12:32:39;99055.63;;;6.58;61.84
46129;BME280;31860;45.186;5.790;2023-01-27T12:35:15;99043.56;;;6.59;61.80
46129;BME280;31860;45.186;5.790;2023-01-27T12:37:42;99051.34;;;6.59;61.73
46129;BME280;31860;45.186;5.790;2023-01-27T12:40:17;99049.59;;;6.58;61.38
46129;BME280;31860;45.186;5.790;2023-01-27T12:42:48;99051.34;;;6.59;61.15
46129;BME280;31860;45.186;5.790;2023-01-27T12:45:29;99057.38;;;6.58;61.14
46129;BME280;31860;45.186;5.790;2023-01-27T12:48:16;99054.81;;;6.59;61.21
46129;BME280;31860;45.186;5.790;2023-01-27T12:56:00;99051.34;;;6.59;61.68
46129;BME280;31860;45.186;5.790;2023-01-27T13:01:29;99052.22;;;6.59;61.39
46129;BME280;31860;45.186;5.790;2023-01-27T13:04:00;99049.59;;;6.58;61.35
46129;BME280;31860;45.186;5.790;2023-01-27T13:09:03;99049.59;;;6.58;61.51
46129;BME280;31860;45.186;5.790;2023-01-27T13:11:35;99044.38;;;6.56;61.77
46129;BME280;31860;45.186;5.790;2023-01-27T13:14:07;99040.06;;;6.55;61.75
46129;BME280;31860;45.186;5.790;2023-01-27T13:16:33;99039.22;;;6.58;61.74
46129;BME280;31860;45.186;5.790;2023-01-27T13:18:59;99042.66;;;6.57;61.44
46129;BME280;31860;45.186;5.790;2023-01-27T13:21:36;99048.72;;;6.56;61.82
46129;BME280;31860;45.186;5.790;2023-01-27T13:24:04;99047.00;;;6.58;61.87
46129;BME280;31860;45.186;5.790;2023-01-27T13:26:35;99058.25;;;6.58;61.69
46129;BME280;31860;45.186;5.790;2023-01-27T13:31:48;99053.03;;;6.57;61.51
46129;BME280;31860;45.186;5.790;2023-01-27T13:37:06;99056.50;;;6.56;61.91
46129;BME280;31860;45.186;5.790;2023-01-27T13:42:33;99059.03;;;6.54;61.83
46129;BME280;31860;45.186;5.790;2023-01-27T13:45:04;99053.00;;;6.54;61.70
46129;BME280;31860;45.186;5.790;2023-01-27T13:52:52;99058.22;;;6.55;61.57
46129;BME280;31860;45.186;5.790;2023-01-27T13:58:29;99059.97;;;6.58;62.05
46129;BME280;31860;45.186;5.790;2023-01-27T14:01:04;99067.72;;;6.56;62.03
46129;BME280;31860;45.186;5.790;2023-01-27T14:12:07;99068.59;;;6.57;62.42
46129;BME280;31860;45.186;5.790;2023-01-27T14:14:53;99072.09;;;6.59;62.53
46129;BME280;31860;45.186;5.790;2023-01-27T14:17:40;99079.84;;;6.57;62.30
46129;BME280;31860;45.186;5.790;2023-01-27T14:20:19;99069.50;;;6.59;62.12
46129;BME280;31860;45.186;5.790;2023-01-27T14:28:43;99073.75;;;6.54;62.94
46129;BME280;31860;45.186;5.790;2023-01-27T14:31:21;99084.13;;;6.54;63.61
46129;BME280;31860;45.186;5.790;2023-01-27T14:36:27;99079.78;;;6.53;63.59
46129;BME280;31860;45.186;5.790;2023-01-27T14:39:02;99078.91;;;6.52;63.50
46129;BME280;31860;45.186;5.790;2023-01-27T14:41:55;99089.31;;;6.54;63.50
46129;BME280;31860;45.186;5.790;2023-01-27T14:47:37;99087.56;;;6.53;63.50
46129;BME280;31860;45.186;5.790;2023-01-27T15:06:15;99077.19;;;6.51;64.69
46129;BME280;31860;45.186;5.790;2023-01-27T15:25:14;99093.53;;;6.47;64.89
46129;BME280;31860;45.186;5.790;2023-01-27T15:27:44;99106.50;;;6.47;65.16
46129;BME280;31860;45.186;5.790;2023-01-27T15:30:39;99103.91;;;6.47;65.42
46129;BME280;31860;45.186;5.790;2023-01-27T15:39:01;99103.03;;;6.47;65.03
46129;BME280;31860;45.186;5.790;2023-01-27T15:44:29;99103.88;;;6.44;64.78
46129;BME280;31860;45.186;5.790;2023-01-27T15:47:06;99106.47;;;6.44;65.02
46129;BME280;31860;45.186;5.790;2023-01-27T15:49:41;99112.56;;;6.46;65.19
46129;BME280;31860;45.186;5.790;2023-01-27T15:54:49;99105.63;;;6.45;64.87
46129;BME280;31860;45.186;5.790;2023-01-27T15:57:38;99106.47;;;6.43;64.96
46129;BME280;31860;45.186;5.790;2023-01-27T16:02:50;99116.84;;;6.43;64.82
46129;BME280;31860;45.186;5.790;2023-01-27T16:05:35;99115.97;;;6.42;64.75
46129;BME280;31860;45.186;5.790;2023-01-27T16:08:09;99122.03;;;6.43;64.97
46129;BME280;31860;45.186;5.790;2023-01-27T16:10:35;99119.44;;;6.44;65.06
46129;BME280;31860;45.186;5.790;2023-01-27T16:13:28;99120.28;;;6.43;64.64
46129;BME280;31860;45.186;5.790;2023-01-27T16:18:51;99128.91;;;6.41;64.80
46129;BME280;31860;45.186;5.790;2023-01-27T16:30:15;99124.63;;;6.43;64.72
46129;BME280;31860;45.186;5.790;2023-01-27T16:35:23;99121.16;;;6.42;64.58